Spanish Lake, Missouri
Current Conditions -  °F | °C
As of 1:35 AM on Wednesday 22 Oct 2014 (Local Time) from KALN Reporting Station
Clear Clear  
Wind Chill: 42°   Ceiling: Unl
Heat Index: 44°   Visibility: 10mi
Dew Point: 40°   Wind: 5mph
Humidity: 84%   Direction: 60°ENE
Pressure: 30.23"   Gusts: NA
Location:  38.7995°N, 90.1891°W
Report Text: KALN 220635Z AUTO 06004KT 10SM CLR 07/04 A3023 RMK AO2 T00670042
Loading
Personal Weather Stations






























Interactive Weather Map New forecast layout! Learn more

10-Day Weather Forecast

Advertisements
Track Severe Weather on mobile